Time;durP1;ratioP1;P1;durP2;ratioP2;P2;SDS_P1;SDS_P2;PMS_P1;PMS_P2;Temp;Humidity;BMP_temperature;BMP_pressure;BME280_temperature;BME280_humidity;BME280_pressure;Samples;Min_cycle;Max_cycle;Signal;HPM_P1;HPM_P2
2021/11/14 00:00:35;;;;;;;31.08;19.27;;;7.90;99.90;;;;;;5094983;28;20093;-68
2021/11/14 00:03:02;;;;;;;32.70;19.80;;;7.90;99.90;;;;;;5094761;28;20028;-68
2021/11/14 00:05:28;;;;;;;31.33;19.30;;;8.00;99.90;;;;;;5096172;28;20024;-67
2021/11/14 00:07:53;;;;;;;32.25;19.67;;;8.00;99.90;;;;;;5096622;28;20024;-67
2021/11/14 00:10:19;;;;;;;28.75;18.65;;;7.90;99.90;;;;;;5094697;28;20031;-68
2021/11/14 00:12:45;;;;;;;29.23;19.00;;;7.90;99.90;;;;;;5095612;28;20038;-68
2021/11/14 00:15:12;;;;;;;29.23;18.58;;;7.90;99.90;;;;;;5096547;28;20117;-67
2021/11/14 00:17:38;;;;;;;29.48;18.25;;;7.90;99.90;;;;;;5096468;28;20032;-67
2021/11/14 00:20:07;;;;;;;24.00;16.95;;;7.80;99.90;;;;;;5095920;28;20035;-67
2021/11/14 00:22:33;;;;;;;24.77;16.98;;;7.80;99.90;;;;;;5094602;28;20031;-67
2021/11/14 00:25:00;;;;;;;24.80;17.08;;;7.80;99.90;;;;;;5095762;28;20032;-68
2021/11/14 00:27:27;;;;;;;27.85;17.13;;;7.70;99.90;;;;;;5096293;28;20488;-67
2021/11/14 00:29:53;;;;;;;27.92;17.15;;;7.70;99.90;;;;;;5095724;28;20044;-67
2021/11/14 00:32:18;;;;;;;26.77;16.08;;;7.70;99.90;;;;;;5096165;28;20031;-67
2021/11/14 00:34:47;;;;;;;30.65;17.60;;;7.60;99.90;;;;;;5096157;28;20347;-68
2021/11/14 00:37:13;;;;;;;26.08;16.10;;;7.60;99.90;;;;;;5094686;28;20016;-68
2021/11/14 00:39:38;;;;;;;24.70;15.85;;;7.60;99.90;;;;;;5096010;28;20127;-68
2021/11/14 00:42:04;;;;;;;27.65;16.35;;;7.60;99.90;;;;;;5095973;28;20031;-68
2021/11/14 00:44:30;;;;;;;29.10;15.85;;;7.60;99.90;;;;;;5095918;28;20101;-68
2021/11/14 00:46:55;;;;;;;27.42;16.92;;;7.50;99.90;;;;;;5095379;28;20069;-68
2021/11/14 00:49:21;;;;;;;27.27;16.17;;;7.50;99.90;;;;;;5093920;28;20477;-67
2021/11/14 00:51:46;;;;;;;26.63;16.05;;;7.50;99.90;;;;;;5095722;28;20028;-67
2021/11/14 00:54:14;;;;;;;26.33;15.98;;;7.50;99.90;;;;;;5095813;28;20024;-68
2021/11/14 00:56:40;;;;;;;24.13;16.15;;;7.50;99.90;;;;;;5095738;28;20016;-67
2021/11/14 00:59:06;;;;;;;26.35;15.63;;;7.50;99.90;;;;;;5094465;28;20046;-67
2021/11/14 01:01:32;;;;;;;26.98;15.23;;;7.50;99.90;;;;;;5095625;28;20027;-68
2021/11/14 01:03:58;;;;;;;26.90;15.75;;;7.50;99.90;;;;;;5094549;28;20027;-68
2021/11/14 01:06:24;;;;;;;21.23;14.48;;;7.40;99.90;;;;;;5095548;28;20070;-68
2021/11/14 01:08:49;;;;;;;24.58;15.75;;;7.50;99.90;;;;;;5095185;28;20032;-68
2021/11/14 01:11:16;;;;;;;24.92;15.63;;;7.40;99.90;;;;;;5076725;28;20034;-68
2021/11/14 01:13:42;;;;;;;24.85;16.10;;;7.40;99.90;;;;;;5094584;28;20016;-68
2021/11/14 01:16:10;;;;;;;23.15;14.80;;;7.50;99.90;;;;;;5095368;28;20058;-68
2021/11/14 01:18:36;;;;;;;26.50;16.38;;;7.50;99.90;;;;;;5095304;28;20020;-68
2021/11/14 01:21:04;;;;;;;26.77;16.33;;;7.40;99.90;;;;;;5095232;28;20032;-68
2021/11/14 01:23:40;;;;;;;23.15;16.33;;;7.40;99.90;;;;;;5094668;28;20427;-68
2021/11/14 01:26:06;;;;;;;28.52;16.75;;;7.40;99.90;;;;;;5093958;28;20020;-68
2021/11/14 01:28:33;;;;;;;24.67;15.82;;;7.40;99.90;;;;;;5093320;28;20073;-68
2021/11/14 01:30:59;;;;;;;25.73;15.73;;;7.40;99.90;;;;;;5094300;28;20091;-68
2021/11/14 01:33:27;;;;;;;25.70;16.52;;;7.40;99.90;;;;;;5095033;28;20109;-68
2021/11/14 01:35:54;;;;;;;25.65;16.23;;;7.40;99.90;;;;;;5093271;28;20032;-68
2021/11/14 01:38:21;;;;;;;25.42;17.33;;;7.40;99.90;;;;;;5093140;28;20020;-67
2021/11/14 01:40:51;;;;;;;23.83;15.57;;;7.40;99.90;;;;;;5094908;28;20051;-68
2021/11/14 01:43:43;;;;;;;25.77;15.68;;;7.50;99.90;;;;;;5094844;28;20030;-68
2021/11/14 01:46:09;;;;;;;23.23;15.35;;;7.40;99.90;;;;;;5094549;28;20469;-68
2021/11/14 01:48:55;;;;;;;23.38;15.48;;;7.50;99.90;;;;;;5092950;28;20035;-68
2021/11/14 01:51:21;;;;;;;27.95;16.58;;;7.40;99.90;;;;;;5094108;28;20389;-68
2021/11/14 01:53:48;;;;;;;26.33;16.15;;;7.40;99.90;;;;;;5094640;28;20020;-68
2021/11/14 01:56:15;;;;;;;23.20;15.90;;;7.40;99.90;;;;;;5094121;28;20047;-68
2021/11/14 01:58:43;;;;;;;28.83;17.35;;;7.40;99.90;;;;;;5094566;28;20450;-68
2021/11/14 02:01:12;;;;;;;24.75;16.02;;;7.40;99.90;;;;;;5093106;28;20051;-68
2021/11/14 02:03:42;;;;;;;29.00;17.50;;;7.30;99.90;;;;;;5092701;28;20477;-68
2021/11/14 02:06:09;;;;;;;27.42;17.08;;;7.30;99.90;;;;;;5093072;28;20024;-68
2021/11/14 02:08:36;;;;;;;26.58;17.15;;;7.20;99.90;;;;;;5094488;28;20103;-68
2021/11/14 02:11:03;;;;;;;26.27;16.00;;;7.20;99.90;;;;;;5094073;28;20058;-68
2021/11/14 02:13:30;;;;;;;32.80;18.23;;;7.20;99.90;;;;;;5094392;28;20358;-68
2021/11/14 02:15:56;;;;;;;29.38;17.48;;;7.20;99.90;;;;;;5094096;28;20531;-68
2021/11/14 02:18:23;;;;;;;29.25;17.02;;;7.20;99.90;;;;;;5094321;28;20111;-68
2021/11/14 02:20:49;;;;;;;30.58;18.67;;;7.20;99.90;;;;;;5094313;28;20066;-68
2021/11/14 02:23:18;;;;;;;31.40;18.23;;;7.20;99.90;;;;;;5093975;28;20023;-68
2021/11/14 02:25:45;;;;;;;31.58;18.85;;;7.10;99.90;;;;;;5094066;28;20070;-68
2021/11/14 02:28:11;;;;;;;35.50;19.38;;;7.10;99.90;;;;;;5094232;28;20048;-68
2021/11/14 02:30:37;;;;;;;35.10;19.48;;;7.10;99.90;;;;;;5093399;28;20528;-68
2021/11/14 02:33:04;;;;;;;34.72;19.55;;;7.20;99.90;;;;;;5094161;28;20021;-68
2021/11/14 02:35:30;;;;;;;34.92;20.02;;;7.20;99.90;;;;;;5093558;28;20016;-68
2021/11/14 02:37:56;;;;;;;33.95;20.42;;;7.20;99.90;;;;;;5094100;28;20397;-68
2021/11/14 02:40:22;;;;;;;35.72;21.63;;;7.20;99.90;;;;;;5076004;28;20032;-68
2021/11/14 02:42:49;;;;;;;39.60;21.55;;;7.20;99.90;;;;;;5092190;28;20110;-68
2021/11/14 02:45:19;;;;;;;41.53;22.27;;;7.20;99.90;;;;;;5075423;28;20031;-68
2021/11/14 02:47:46;;;;;;;31.48;19.92;;;7.20;99.90;;;;;;5093030;28;20445;-68
2021/11/14 02:50:11;;;;;;;40.47;22.02;;;7.20;99.90;;;;;;5092427;28;20035;-68
2021/11/14 02:52:37;;;;;;;37.92;21.33;;;7.20;99.90;;;;;;5093981;28;20016;-67
2021/11/14 02:55:05;;;;;;;39.15;21.25;;;7.10;99.90;;;;;;5093950;28;20412;-68
2021/11/14 02:57:31;;;;;;;35.22;20.42;;;7.10;99.90;;;;;;5093932;28;20073;-67
2021/11/14 02:59:58;;;;;;;33.83;20.25;;;7.10;99.90;;;;;;5093867;28;20026;-68
2021/11/14 03:02:24;;;;;;;34.08;18.90;;;7.10;99.90;;;;;;5092712;28;20073;-67
2021/11/14 03:04:50;;;;;;;29.85;18.55;;;7.10;99.90;;;;;;5093826;28;20027;-68
2021/11/14 03:07:16;;;;;;;31.08;19.45;;;7.00;99.90;;;;;;5092845;28;20020;-68
2021/11/14 03:09:42;;;;;;;31.95;18.48;;;7.00;99.90;;;;;;5093778;28;20428;-68
2021/11/14 03:12:09;;;;;;;31.73;17.95;;;7.00;99.90;;;;;;5093803;28;20026;-68
2021/11/14 03:14:35;;;;;;;31.88;18.60;;;7.10;99.90;;;;;;5093474;28;20473;-68
2021/11/14 03:17:01;;;;;;;26.35;16.83;;;7.00;99.90;;;;;;5091974;28;20024;-67
2021/11/14 03:19:27;;;;;;;26.85;17.83;;;7.00;99.90;;;;;;5093679;28;20021;-67
2021/11/14 03:21:52;;;;;;;26.45;16.65;;;7.00;99.90;;;;;;5093095;28;20069;-67
2021/11/14 03:24:18;;;;;;;24.10;16.85;;;7.00;99.90;;;;;;5093662;28;20454;-67
2021/11/14 03:26:44;;;;;;;27.67;16.33;;;7.00;99.90;;;;;;5093628;28;20074;-67
2021/11/14 03:29:10;;;;;;;24.70;16.73;;;6.90;99.90;;;;;;5093372;28;20434;-67
2021/11/14 03:31:36;;;;;;;24.95;17.58;;;6.90;99.90;;;;;;5091731;28;20111;-68
2021/11/14 03:34:02;;;;;;;24.92;16.38;;;6.90;99.90;;;;;;5093576;28;20020;-68
2021/11/14 03:36:28;;;;;;;27.83;15.63;;;6.90;99.90;;;;;;5093612;28;20048;-68
2021/11/14 03:38:56;;;;;;;25.42;17.00;;;6.90;99.90;;;;;;5095125;28;20060;-67
2021/11/14 03:41:27;;;;;;;28.20;16.98;;;6.80;99.90;;;;;;5096948;28;20032;-68
2021/11/14 03:43:53;;;;;;;30.75;17.40;;;6.80;99.90;;;;;;5097158;28;20032;-67
2021/11/14 03:46:19;;;;;;;28.00;17.65;;;6.80;99.90;;;;;;5078367;28;20114;-67
2021/11/14 03:48:47;;;;;;;32.75;18.15;;;6.70;99.90;;;;;;5096475;28;20032;-67
2021/11/14 03:51:15;;;;;;;25.23;16.38;;;6.80;99.90;;;;;;5096962;28;20442;-68
2021/11/14 03:53:42;;;;;;;25.88;16.88;;;6.80;99.90;;;;;;5096994;28;20023;-67
2021/11/14 03:56:08;;;;;;;27.73;17.65;;;6.90;99.90;;;;;;5078210;28;20017;-67
2021/11/14 03:58:35;;;;;;;28.13;17.60;;;6.80;99.90;;;;;;5096882;28;20392;-67
2021/11/14 04:01:05;;;;;;;30.13;17.55;;;6.80;99.90;;;;;;5096863;28;20028;-67
2021/11/14 04:03:30;;;;;;;28.55;17.80;;;6.70;99.90;;;;;;5096501;28;20080;-67
2021/11/14 04:05:57;;;;;;;28.45;18.77;;;6.70;99.90;;;;;;5095579;28;20411;-68
2021/11/14 04:08:25;;;;;;;32.03;19.48;;;6.70;99.90;;;;;;5096443;28;20415;-68
2021/11/14 04:10:53;;;;;;;32.28;19.83;;;6.60;99.90;;;;;;5096295;28;20475;-67
2021/11/14 04:13:20;;;;;;;31.55;18.65;;;6.60;99.90;;;;;;5095163;28;20020;-67
2021/11/14 04:15:47;;;;;;;35.05;19.58;;;6.60;99.90;;;;;;5096514;28;20024;-68
2021/11/14 04:18:13;;;;;;;32.88;18.25;;;6.60;99.90;;;;;;5096480;28;20381;-67
2021/11/14 04:20:41;;;;;;;31.63;19.30;;;6.60;99.90;;;;;;5095006;28;20024;-67
2021/11/14 04:23:09;;;;;;;34.83;19.23;;;6.50;99.90;;;;;;5096153;28;20470;-67
2021/11/14 04:25:35;;;;;;;38.33;21.77;;;6.40;99.90;;;;;;5078274;28;20045;-67
2021/11/14 04:28:01;;;;;;;36.85;20.20;;;6.40;99.90;;;;;;5094499;28;20024;-67
2021/11/14 04:30:27;;;;;;;39.38;21.77;;;6.30;99.90;;;;;;5094323;28;20044;-68
2021/11/14 04:32:54;;;;;;;35.53;21.40;;;6.30;99.90;;;;;;5095018;28;20476;-68
2021/11/14 04:35:19;;;;;;;36.45;21.05;;;6.30;99.90;;;;;;5095907;28;20056;-67
2021/11/14 04:37:49;;;;;;;40.40;22.50;;;6.20;99.90;;;;;;5096104;28;20071;-67
2021/11/14 04:40:17;;;;;;;40.42;23.17;;;6.20;99.90;;;;;;5096073;28;20466;-67
2021/11/14 04:42:43;;;;;;;41.47;23.35;;;6.20;99.90;;;;;;5094900;28;20031;-68
2021/11/14 04:45:09;;;;;;;46.90;25.08;;;6.20;99.90;;;;;;5095954;28;20016;-67
2021/11/14 04:47:35;;;;;;;46.25;24.10;;;6.10;99.90;;;;;;5077840;28;20028;-68
2021/11/14 04:50:01;;;;;;;45.17;25.08;;;6.10;99.90;;;;;;5094344;28;20061;-67
2021/11/14 04:52:27;;;;;;;44.33;25.15;;;6.00;99.90;;;;;;5095558;28;20028;-68
2021/11/14 04:54:52;;;;;;;50.40;27.15;;;6.00;99.90;;;;;;5095500;28;20087;-67
2021/11/14 04:57:18;;;;;;;48.90;26.15;;;5.90;99.90;;;;;;5095714;28;20047;-67
2021/11/14 04:59:44;;;;;;;56.00;28.50;;;5.80;99.90;;;;;;5095668;28;20069;-68
2021/11/14 05:02:09;;;;;;;51.95;27.70;;;5.80;99.90;;;;;;5076910;28;20032;-68
2021/11/14 05:04:35;;;;;;;55.92;28.60;;;5.80;99.90;;;;;;5095576;28;20028;-68
2021/11/14 05:07:00;;;;;;;53.58;29.13;;;5.70;99.90;;;;;;5094330;28;20051;-68
2021/11/14 05:09:26;;;;;;;58.53;30.10;;;5.60;99.90;;;;;;5095391;28;20031;-68
2021/11/14 05:11:52;;;;;;;61.45;29.25;;;5.70;99.90;;;;;;5094012;28;20080;-68
2021/11/14 05:14:17;;;;;;;59.38;29.13;;;5.70;99.90;;;;;;5095373;28;20020;-67
2021/11/14 05:16:43;;;;;;;56.78;27.83;;;5.70;99.90;;;;;;5095338;28;20028;-67
2021/11/14 05:19:08;;;;;;;65.50;30.95;;;5.60;99.90;;;;;;5095252;28;20454;-68
2021/11/14 05:21:34;;;;;;;62.08;30.60;;;5.60;99.90;;;;;;5093796;28;20354;-68
2021/11/14 05:23:59;;;;;;;71.10;33.50;;;5.60;99.90;;;;;;5095214;28;20028;-68
2021/11/14 05:26:25;;;;;;;70.15;32.78;;;5.60;99.90;;;;;;5095098;28;20128;-68
2021/11/14 05:28:50;;;;;;;74.50;33.15;;;5.60;99.90;;;;;;5094899;28;20032;-68
2021/11/14 05:31:16;;;;;;;70.22;33.22;;;5.60;99.90;;;;;;5094244;28;20047;-68
2021/11/14 05:33:42;;;;;;;74.60;34.00;;;5.60;99.90;;;;;;5094762;28;20024;-68
2021/11/14 05:36:07;;;;;;;75.40;35.35;;;5.50;99.90;;;;;;5094688;28;20056;-67
2021/11/14 05:38:33;;;;;;;75.50;36.15;;;5.60;99.90;;;;;;5094673;28;20048;-68
2021/11/14 05:40:59;;;;;;;80.43;35.35;;;5.60;99.90;;;;;;5094871;28;20035;-68
2021/11/14 05:43:24;;;;;;;88.28;36.80;;;5.60;99.90;;;;;;5094522;28;20488;-68
2021/11/14 05:45:50;;;;;;;82.93;35.83;;;5.60;99.90;;;;;;5094777;28;20036;-68
2021/11/14 05:48:15;;;;;;;71.00;34.65;;;5.60;99.90;;;;;;5094789;28;20043;-67
2021/11/14 05:50:41;;;;;;;72.93;34.10;;;5.70;99.90;;;;;;5093191;28;20111;-68
2021/11/14 05:53:07;;;;;;;72.85;33.15;;;5.70;99.90;;;;;;5076025;28;20118;-67
2021/11/14 05:55:33;;;;;;;75.75;33.45;;;5.60;99.90;;;;;;5092854;28;20024;-68
2021/11/14 05:58:10;;;;;;;75.53;33.40;;;5.70;99.90;;;;;;5094586;28;20024;-67
2021/11/14 06:01:07;;;;;;;74.35;32.88;;;5.60;99.90;;;;;;5093917;28;20016;-67
2021/11/14 06:03:44;;;;;;;72.35;32.42;;;5.50;99.90;;;;;;5093893;28;20076;-67
2021/11/14 06:06:09;;;;;;;79.65;35.05;;;5.50;99.90;;;;;;5093861;28;20031;-68
2021/11/14 06:08:35;;;;;;;78.38;34.00;;;5.40;99.90;;;;;;5093021;28;20029;-71
2021/11/14 06:11:01;;;;;;;77.38;33.53;;;5.50;99.90;;;;;;5094114;28;20063;-68
2021/11/14 06:13:28;;;;;;;75.13;34.15;;;5.40;99.90;;;;;;5094398;28;20028;-68
2021/11/14 06:15:55;;;;;;;89.07;36.53;;;5.50;99.90;;;;;;5094091;28;20027;-68
2021/11/14 06:18:21;;;;;;;74.55;35.08;;;5.50;99.90;;;;;;5093769;28;20024;-68
2021/11/14 06:20:48;;;;;;;80.78;34.80;;;5.50;99.90;;;;;;5094265;28;20024;-68
2021/11/14 06:23:14;;;;;;;80.07;34.35;;;5.50;99.90;;;;;;5094016;28;20469;-68
2021/11/14 06:25:40;;;;;;;73.05;33.35;;;5.50;99.90;;;;;;5094232;28;20111;-68
2021/11/14 06:28:06;;;;;;;78.60;35.10;;;5.60;99.90;;;;;;5094182;28;20093;-68
2021/11/14 06:30:32;;;;;;;81.47;35.08;;;5.60;99.90;;;;;;5092292;28;20494;-68
2021/11/14 06:32:58;;;;;;;75.60;33.95;;;5.60;99.90;;;;;;5094164;28;20022;-68
2021/11/14 06:35:24;;;;;;;75.88;33.55;;;5.60;99.90;;;;;;5092971;28;20087;-68
2021/11/14 06:37:51;;;;;;;77.82;34.75;;;5.60;99.90;;;;;;5093834;28;20020;-68
2021/11/14 06:40:17;;;;;;;69.25;31.67;;;5.60;99.90;;;;;;5094067;28;20028;-68
2021/11/14 06:42:43;;;;;;;70.88;32.50;;;5.70;99.90;;;;;;5094085;28;20020;-68
2021/11/14 06:45:09;;;;;;;64.78;30.23;;;5.80;99.90;;;;;;5094013;28;20386;-68
2021/11/14 06:47:35;;;;;;;64.65;31.13;;;5.80;99.90;;;;;;5093761;28;20127;-68
2021/11/14 06:50:01;;;;;;;73.32;30.73;;;5.90;99.90;;;;;;5092232;28;20032;-68
2021/11/14 06:52:26;;;;;;;71.72;30.63;;;6.00;99.90;;;;;;5093386;28;20037;-68
2021/11/14 06:54:52;;;;;;;65.28;30.42;;;6.10;99.90;;;;;;5092700;28;20016;-68
2021/11/14 06:57:19;;;;;;;62.90;30.13;;;6.20;99.90;;;;;;5093399;28;20024;-68
2021/11/14 06:59:46;;;;;;;71.82;32.17;;;6.30;99.90;;;;;;5093389;28;20024;-68
2021/11/14 07:02:11;;;;;;;62.60;30.70;;;6.40;99.90;;;;;;5093894;28;20416;-68
2021/11/14 07:04:37;;;;;;;65.35;31.65;;;6.40;99.90;;;;;;5093544;28;20035;-68
2021/11/14 07:07:03;;;;;;;58.60;29.25;;;6.50;99.90;;;;;;5093819;28;20027;-68
2021/11/14 07:09:29;;;;;;;58.42;28.90;;;6.60;99.90;;;;;;5091932;28;20548;-68
2021/11/14 07:11:54;;;;;;;57.60;28.42;;;6.70;99.90;;;;;;5094187;28;20111;-68
2021/11/14 07:14:22;;;;;;;56.08;28.10;;;6.70;99.90;;;;;;5097784;28;20419;-68
2021/11/14 07:16:47;;;;;;;60.45;28.00;;;6.70;99.90;;;;;;5097134;28;20038;-68
2021/11/14 07:19:13;;;;;;;57.42;28.88;;;6.80;99.90;;;;;;5097624;28;20028;-68
2021/11/14 07:21:38;;;;;;;53.42;27.27;;;6.80;99.90;;;;;;5097589;28;20482;-68
2021/11/14 07:24:04;;;;;;;56.40;27.67;;;6.80;99.90;;;;;;5097518;28;20523;-68
2021/11/14 07:26:30;;;;;;;51.95;26.42;;;6.80;99.90;;;;;;5097510;28;20482;-68
2021/11/14 07:28:57;;;;;;;55.13;27.42;;;6.90;99.90;;;;;;5096482;28;20039;-68
2021/11/14 07:31:22;;;;;;;51.00;26.48;;;6.90;99.90;;;;;;5096682;28;20119;-68
2021/11/14 07:33:48;;;;;;;56.97;27.63;;;6.90;99.90;;;;;;5097332;28;20059;-68
2021/11/14 07:36:14;;;;;;;55.33;27.13;;;6.90;99.90;;;;;;5096756;28;20021;-68
2021/11/14 07:38:39;;;;;;;56.55;27.45;;;6.90;99.90;;;;;;5095461;28;20016;-68
2021/11/14 07:41:05;;;;;;;61.35;28.73;;;6.90;99.90;;;;;;5096937;28;20035;-68
2021/11/14 07:43:30;;;;;;;57.40;26.10;;;6.90;99.90;;;;;;5095403;28;20028;-67
2021/11/14 07:45:56;;;;;;;54.35;25.67;;;6.90;99.90;;;;;;5095999;28;20032;-67
2021/11/14 07:48:21;;;;;;;56.22;26.10;;;6.90;99.90;;;;;;5097107;28;20027;-67
2021/11/14 07:50:47;;;;;;;51.28;25.60;;;7.00;99.90;;;;;;5096646;28;20078;-68
2021/11/14 07:53:13;;;;;;;53.60;25.98;;;7.00;99.90;;;;;;5095301;28;20446;-67
2021/11/14 07:55:39;;;;;;;54.80;24.33;;;7.10;99.90;;;;;;5096395;28;20016;-67
2021/11/14 07:58:06;;;;;;;50.30;24.67;;;7.10;99.90;;;;;;5095452;28;20111;-68
2021/11/14 08:00:34;;;;;;;49.70;23.98;;;7.20;99.90;;;;;;5095055;28;20083;-67
2021/11/14 08:03:00;;;;;;;50.17;25.27;;;7.20;99.90;;;;;;5096258;28;20355;-67
2021/11/14 08:05:28;;;;;;;45.72;24.55;;;7.30;99.90;;;;;;5096759;28;20027;-68
2021/11/14 08:07:54;;;;;;;53.70;25.05;;;7.40;99.90;;;;;;5095280;28;20103;-68
2021/11/14 08:10:23;;;;;;;47.47;24.65;;;7.40;99.90;;;;;;5096620;28;20016;-68
2021/11/14 08:12:50;;;;;;;46.60;24.02;;;7.50;99.90;;;;;;5096592;28;20020;-68
2021/11/14 08:15:16;;;;;;;55.13;26.00;;;7.50;99.90;;;;;;5095140;28;20016;-68
2021/11/14 08:17:43;;;;;;;54.75;25.17;;;7.60;99.90;;;;;;5096353;28;20407;-68
2021/11/14 08:20:09;;;;;;;53.08;24.90;;;7.50;99.90;;;;;;5096504;28;20431;-67
2021/11/14 08:22:35;;;;;;;53.67;25.88;;;7.60;99.90;;;;;;5094489;28;20131;-67
2021/11/14 08:25:02;;;;;;;53.72;26.42;;;7.60;99.90;;;;;;5096338;28;20039;-68
2021/11/14 08:27:30;;;;;;;49.08;24.60;;;7.60;99.90;;;;;;5096359;28;20461;-67
2021/11/14 08:29:57;;;;;;;49.80;24.83;;;7.70;99.90;;;;;;5095880;28;20040;-67
2021/11/14 08:32:23;;;;;;;48.10;24.08;;;7.70;99.90;;;;;;5096278;28;20016;-67
2021/11/14 08:34:48;;;;;;;46.55;23.88;;;7.80;99.90;;;;;;5078050;28;20030;-67
2021/11/14 08:37:14;;;;;;;47.58;23.88;;;7.70;99.90;;;;;;5095600;28;20020;-66
2021/11/14 08:39:41;;;;;;;46.05;23.50;;;7.80;99.90;;;;;;5077428;28;20126;-67
2021/11/14 08:42:07;;;;;;;50.38;24.20;;;7.80;99.90;;;;;;5096092;28;20023;-67
2021/11/14 08:44:33;;;;;;;45.55;23.75;;;7.80;99.90;;;;;;5095490;28;20016;-67
2021/11/14 08:46:59;;;;;;;47.22;24.23;;;7.80;99.90;;;;;;5095917;28;20028;-67
2021/11/14 08:49:24;;;;;;;44.03;23.95;;;7.80;99.90;;;;;;5094052;28;20063;-67
2021/11/14 08:51:51;;;;;;;48.25;24.58;;;7.80;99.90;;;;;;5095843;28;20511;-67
2021/11/14 08:54:17;;;;;;;43.70;24.55;;;7.90;99.90;;;;;;5094847;28;20115;-67
2021/11/14 08:56:42;;;;;;;48.63;25.38;;;7.90;99.90;;;;;;5093963;28;20051;-68
2021/11/14 08:59:10;;;;;;;48.95;25.02;;;7.90;99.90;;;;;;5095150;28;20032;-68
2021/11/14 09:01:37;;;;;;;49.70;26.00;;;8.00;99.90;;;;;;5093814;28;20024;-68
2021/11/14 09:04:04;;;;;;;45.53;24.25;;;8.10;99.90;;;;;;5095375;28;20036;-68
2021/11/14 09:06:30;;;;;;;47.63;25.02;;;8.00;99.90;;;;;;5095041;28;20042;-68
2021/11/14 09:08:55;;;;;;;46.55;26.25;;;8.10;99.90;;;;;;5094979;28;20111;-68
2021/11/14 09:11:22;;;;;;;43.38;24.95;;;8.10;99.90;;;;;;5095089;28;20368;-68
2021/11/14 09:13:48;;;;;;;46.15;24.08;;;8.20;99.90;;;;;;5095458;28;20028;-68
2021/11/14 09:16:15;;;;;;;46.45;24.58;;;8.20;99.90;;;;;;5095407;28;20117;-68
2021/11/14 09:18:40;;;;;;;47.80;26.70;;;8.20;99.90;;;;;;5095270;28;20040;-68
2021/11/14 09:21:06;;;;;;;43.03;25.05;;;8.20;99.90;;;;;;5077007;28;20024;-68
2021/11/14 09:23:32;;;;;;;44.70;25.52;;;8.30;99.90;;;;;;5095266;28;20028;-68
2021/11/14 09:25:58;;;;;;;43.03;23.17;;;8.30;99.90;;;;;;5095161;28;20028;-68
2021/11/14 09:28:25;;;;;;;45.45;26.05;;;8.40;99.90;;;;;;5077117;28;20530;-68
2021/11/14 09:30:50;;;;;;;43.65;24.58;;;8.40;99.90;;;;;;5076222;28;20047;-68
2021/11/14 09:33:21;;;;;;;46.60;26.45;;;8.40;99.90;;;;;;5094812;28;20123;-68
2021/11/14 09:35:47;;;;;;;44.97;25.80;;;8.50;99.90;;;;;;5093186;28;20050;-68
2021/11/14 09:38:14;;;;;;;42.90;25.15;;;8.50;99.90;;;;;;5093539;28;20039;-68
2021/11/14 09:40:40;;;;;;;43.42;25.70;;;8.50;99.90;;;;;;5093521;28;20026;-68
2021/11/14 09:43:07;;;;;;;48.53;26.05;;;8.60;99.90;;;;;;5094626;28;20020;-67
2021/11/14 09:45:34;;;;;;;40.72;24.85;;;8.70;99.90;;;;;;5094632;28;20032;-69
2021/11/14 09:48:02;;;;;;;47.05;24.90;;;8.70;99.90;;;;;;5094815;28;20469;-68
2021/11/14 09:50:28;;;;;;;49.50;25.67;;;8.80;99.90;;;;;;5094399;28;20381;-68
2021/11/14 09:52:57;;;;;;;42.35;24.13;;;8.80;99.90;;;;;;5092913;28;20020;-69
2021/11/14 09:55:24;;;;;;;43.55;24.17;;;8.90;99.90;;;;;;5092908;28;20024;-69
2021/11/14 09:57:50;;;;;;;45.83;26.80;;;9.00;99.90;;;;;;5094344;28;20024;-69
2021/11/14 10:00:17;;;;;;;41.55;24.88;;;9.10;99.90;;;;;;5093292;28;20046;-69
2021/11/14 10:02:44;;;;;;;39.13;23.17;;;9.30;99.90;;;;;;5092772;28;20034;-69
2021/11/14 10:05:12;;;;;;;44.25;24.63;;;9.40;99.90;;;;;;5094234;28;20031;-69
2021/11/14 10:07:40;;;;;;;39.42;22.83;;;9.60;99.90;;;;;;5093311;28;20031;-69
2021/11/14 10:10:08;;;;;;;38.47;23.35;;;9.60;99.90;;;;;;5094392;28;20052;-69
2021/11/14 10:12:36;;;;;;;40.55;23.13;;;9.80;99.90;;;;;;5094501;28;20027;-69
2021/11/14 10:15:22;;;;;;;37.20;22.70;;;9.90;99.90;;;;;;5094380;28;20019;-68
2021/11/14 10:17:53;;;;;;;37.55;22.85;;;9.80;99.90;;;;;;5093767;28;20061;-69
2021/11/14 10:20:29;;;;;;;40.83;24.23;;;10.00;99.90;;;;;;5093186;28;20028;-69
2021/11/14 10:23:00;;;;;;;35.50;22.15;;;10.00;99.90;;;;;;5093954;28;20465;-68
2021/11/14 10:25:27;;;;;;;34.17;21.50;;;10.00;99.90;;;;;;5094241;28;20028;-69
2021/11/14 10:27:56;;;;;;;33.15;20.90;;;10.30;99.90;;;;;;5092459;28;20027;-68
2021/11/14 10:30:25;;;;;;;36.20;21.80;;;10.60;99.90;;;;;;5092478;28;20119;-69
2021/11/14 10:32:55;;;;;;;32.72;20.70;;;10.90;99.90;;;;;;5092778;28;20434;-71
2021/11/14 10:35:22;;;;;;;30.33;19.92;;;11.50;99.90;;;;;;5076498;28;20623;-69
2021/11/14 10:37:49;;;;;;;26.95;17.45;;;11.90;99.90;;;;;;5076208;28;20530;-68
2021/11/14 10:40:19;;;;;;;25.45;17.05;;;11.70;99.90;;;;;;5075605;28;20039;-69
2021/11/14 10:42:49;;;;;;;27.55;17.45;;;12.00;99.90;;;;;;5094085;28;20047;-69
2021/11/14 10:45:15;;;;;;;24.95;17.08;;;12.40;99.90;;;;;;5094078;28;20020;-69
2021/11/14 10:47:41;;;;;;;23.27;16.10;;;12.60;99.90;;;;;;5095729;28;20123;-69
2021/11/14 10:50:11;;;;;;;23.25;16.85;;;13.70;99.90;;;;;;5097219;28;20073;-68
2021/11/14 10:52:37;;;;;;;21.58;15.77;;;14.30;99.90;;;;;;5097615;28;20032;-68
2021/11/14 10:55:08;;;;;;;23.65;15.82;;;14.30;99.90;;;;;;5096643;28;20490;-68
2021/11/14 10:57:35;;;;;;;21.17;14.50;;;14.20;99.90;;;;;;5096878;28;20048;-68
2021/11/14 11:00:06;;;;;;;20.90;15.43;;;13.50;99.90;;;;;;5097684;28;20029;-68
2021/11/14 11:02:33;;;;;;;19.60;14.80;;;14.00;99.90;;;;;;5097011;28;20020;-69
2021/11/14 11:05:17;;;;;;;20.73;15.32;;;13.40;99.90;;;;;;5097908;28;20024;-68
2021/11/14 11:07:54;;;;;;;21.38;15.02;;;13.10;99.90;;;;;;5098098;28;20028;-68
2021/11/14 11:10:22;;;;;;;19.50;14.82;;;12.80;99.90;;;;;;5079104;28;20063;-68
2021/11/14 11:12:48;;;;;;;21.90;16.05;;;13.00;99.90;;;;;;5096105;28;20489;-69
2021/11/14 11:15:14;;;;;;;24.98;16.42;;;12.90;99.90;;;;;;5079933;28;20020;-70
2021/11/14 11:17:47;;;;;;;24.38;15.77;;;12.70;99.90;;;;;;5079086;28;20016;-69
2021/11/14 11:20:16;;;;;;;19.48;15.02;;;12.60;99.90;;;;;;5097668;28;20024;-68
2021/11/14 11:23:03;;;;;;;25.17;15.70;;;12.30;99.90;;;;;;5096343;28;20385;-68
2021/11/14 11:28:20;;;;;;;24.92;16.98;;;12.30;99.90;;;;;;5112332;27;20776;-70
2021/11/14 11:30:50;;;;;;;23.83;16.13;;;11.70;99.90;;;;;;5093156;28;20039;-69
2021/11/14 11:33:18;;;;;;;24.58;16.55;;;11.40;99.90;;;;;;5093767;28;20044;-69
2021/11/14 11:35:44;;;;;;;24.00;16.02;;;11.30;99.90;;;;;;5110472;28;20374;-69
2021/11/14 11:38:11;;;;;;;22.60;15.82;;;11.60;99.90;;;;;;5111824;28;20026;-69
2021/11/14 11:40:37;;;;;;;22.90;15.13;;;11.70;99.90;;;;;;5110435;28;20092;-69
2021/11/14 11:43:03;;;;;;;23.20;16.15;;;11.90;99.90;;;;;;5111808;28;20395;-68
2021/11/14 11:45:35;;;;;;;24.02;15.50;;;11.70;99.90;;;;;;5111714;28;20024;-68
2021/11/14 11:48:05;;;;;;;24.33;16.30;;;11.60;99.90;;;;;;5111408;28;20024;-70
2021/11/14 11:50:33;;;;;;;22.65;15.40;;;11.60;99.90;;;;;;5111398;28;20016;-69
2021/11/14 11:52:59;;;;;;;24.23;15.23;;;11.50;99.90;;;;;;5109726;28;20035;-68
2021/11/14 11:55:31;;;;;;;22.35;15.77;;;11.40;99.90;;;;;;5110941;28;20024;-68
2021/11/14 11:58:10;;;;;;;20.23;14.20;;;11.40;99.90;;;;;;5111109;28;20020;-68
2021/11/14 12:00:48;;;;;;;23.60;15.60;;;11.40;99.90;;;;;;5111113;28;20097;-69
2021/11/14 12:03:31;;;;;;;21.63;15.07;;;11.50;99.90;;;;;;5111200;28;20031;-68
2021/11/14 12:05:59;;;;;;;22.45;15.35;;;11.40;99.90;;;;;;5111163;28;20020;-70
2021/11/14 12:08:46;;;;;;;22.70;15.40;;;11.40;99.90;;;;;;5109387;28;20031;-68
2021/11/14 12:11:24;;;;;;;23.25;15.75;;;11.60;99.90;;;;;;5109639;28;20073;-69
2021/11/14 12:13:50;;;;;;;20.58;14.15;;;11.60;99.90;;;;;;5111091;28;20023;-69
2021/11/14 12:16:26;;;;;;;20.85;14.27;;;11.70;99.90;;;;;;5110775;28;20032;-69
2021/11/14 12:18:52;;;;;;;23.08;15.52;;;11.50;99.90;;;;;;5110971;28;20028;-69
2021/11/14 12:21:21;;;;;;;22.58;15.05;;;11.60;99.90;;;;;;5110412;28;20107;-68
2021/11/14 12:23:53;;;;;;;22.98;15.75;;;11.60;99.90;;;;;;5110970;28;20026;-69
2021/11/14 12:26:29;;;;;;;22.65;15.27;;;11.70;99.90;;;;;;5110330;28;20044;-69
2021/11/14 12:28:59;;;;;;;26.00;16.30;;;11.70;99.90;;;;;;5092814;28;20024;-67
2021/11/14 12:31:26;;;;;;;23.23;15.80;;;11.40;99.90;;;;;;5109748;28;20402;-67
2021/11/14 12:33:56;;;;;;;22.23;15.23;;;11.40;99.90;;;;;;5109250;28;20052;-68
2021/11/14 12:36:36;;;;;;;25.95;16.05;;;11.50;99.90;;;;;;5109619;28;20028;-69
2021/11/14 12:39:09;;;;;;;24.67;16.77;;;11.50;99.90;;;;;;5098481;28;20031;-69